createdAt,value
2023-02-25T00:02:47.266Z,87.82
2023-02-25T00:05:51.249Z,88.23
2023-02-25T00:08:55.484Z,87.74
2023-02-25T00:11:58.160Z,87.09
2023-02-25T00:15:00.835Z,85.84
2023-02-25T00:18:03.430Z,85.41
2023-02-25T00:21:09.517Z,81.43
2023-02-25T00:24:16.956Z,80.86
2023-02-25T00:27:19.949Z,80.41
2023-02-25T00:30:23.062Z,81.15
2023-02-25T00:33:25.704Z,78.25
2023-02-25T00:36:29.730Z,75.45
2023-02-25T00:39:43.065Z,77.13
2023-02-25T00:42:46.102Z,77.05
2023-02-25T00:45:48.758Z,75.45
2023-02-25T00:48:51.758Z,75.91
2023-02-25T00:51:58.560Z,74.96
2023-02-25T00:55:02.500Z,75.14
2023-02-25T00:58:05.135Z,77.16
2023-02-25T01:01:19.446Z,77.08
2023-02-25T01:04:22.193Z,75.84
2023-02-25T01:07:26.349Z,76.46
2023-02-25T01:10:29.517Z,76.75
2023-02-25T01:13:32.200Z,76.16
2023-02-25T01:16:36.501Z,75.78
2023-02-25T01:19:39.247Z,76.40
2023-02-25T01:22:43.183Z,76.41
2023-02-25T01:25:45.793Z,77.16
2023-02-25T01:28:48.443Z,74.71
2023-02-25T01:31:53.509Z,74.97
2023-02-25T01:34:56.833Z,74.32
2023-02-25T01:38:00.786Z,74.42
2023-02-25T01:41:04.440Z,74.36
2023-02-25T01:44:10.284Z,73.02
2023-02-25T01:47:20.979Z,73.04
2023-02-25T01:50:26.742Z,73.51
2023-02-25T01:53:34.449Z,73.37
2023-02-25T01:56:39.655Z,73.30
2023-02-25T01:59:44.009Z,74.13
2023-02-25T02:02:50.349Z,73.26
2023-02-25T02:06:08.434Z,73.48
2023-02-25T02:09:16.189Z,73.30
2023-02-25T02:12:18.778Z,73.85
2023-02-25T02:15:21.447Z,71.79
2023-02-25T02:18:25.237Z,72.80
2023-02-25T02:21:48.506Z,72.37
2023-02-25T02:25:41.672Z,73.08
2023-02-25T02:29:12.416Z,73.36
2023-02-25T02:32:28.748Z,73.27
2023-02-25T02:35:37.346Z,72.17
2023-02-25T02:38:48.981Z,72.49
2023-02-25T02:42:01.344Z,72.47
2023-02-25T02:45:11.224Z,72.48
2023-02-25T02:48:18.401Z,73.47
2023-02-25T02:51:27.663Z,72.93
2023-02-25T02:54:33.180Z,72.12
2023-02-25T02:57:39.043Z,72.55
2023-02-25T03:00:44.720Z,71.66
2023-02-25T03:03:53.225Z,71.77
2023-02-25T03:07:00.561Z,72.02
2023-02-25T03:10:08.159Z,72.51
2023-02-25T03:13:10.818Z,72.91
2023-02-25T03:16:19.226Z,72.37
2023-02-25T03:19:27.841Z,72.17
2023-02-25T03:22:35.993Z,71.39
2023-02-25T03:25:47.477Z,70.48
2023-02-25T03:28:50.455Z,71.22
2023-02-25T03:31:58.959Z,71.26
2023-02-25T03:35:05.813Z,70.59
2023-02-25T03:38:12.172Z,71.15
2023-02-25T03:41:17.023Z,70.91
2023-02-25T03:44:24.872Z,69.72
2023-02-25T03:47:29.242Z,69.57
2023-02-25T03:50:38.420Z,69.43
2023-02-25T03:53:41.319Z,70.07
2023-02-25T03:56:46.751Z,68.74
2023-02-25T03:59:49.918Z,68.20
2023-02-25T04:02:52.880Z,66.80
2023-02-25T04:05:56.941Z,67.03
2023-02-25T04:08:59.572Z,67.74
2023-02-25T04:12:02.193Z,67.39
2023-02-25T04:15:05.959Z,68.04
2023-02-25T04:18:08.911Z,67.80
2023-02-25T04:21:27.574Z,67.02
2023-02-25T04:24:30.215Z,67.66
2023-02-25T04:27:33.074Z,67.33
2023-02-25T04:30:35.781Z,67.80
2023-02-25T04:33:38.409Z,67.89
2023-02-25T04:36:44.341Z,67.67
2023-02-25T04:39:47.033Z,67.57
2023-02-25T04:42:49.942Z,67.76
2023-02-25T04:45:55.411Z,67.75
2023-02-25T04:48:58.090Z,69.14
2023-02-25T04:52:02.108Z,68.96
2023-02-25T04:55:05.676Z,67.82
2023-02-25T04:58:08.351Z,67.76
2023-02-25T05:01:11.571Z,66.72
2023-02-25T05:04:14.252Z,67.60
2023-02-25T05:07:18.277Z,67.22
2023-02-25T05:10:20.973Z,67.58
2023-02-25T05:13:23.795Z,66.67
2023-02-25T05:16:27.472Z,67.88
2023-02-25T05:19:30.433Z,67.00
2023-02-25T05:22:34.509Z,67.21
2023-02-25T05:25:41.199Z,67.14
2023-02-25T05:28:44.508Z,67.34
2023-02-25T05:31:47.696Z,64.31
2023-02-25T05:34:50.589Z,64.57
2023-02-25T05:37:54.702Z,64.42
2023-02-25T05:41:00.016Z,61.93
2023-02-25T05:44:02.748Z,64.08
2023-02-25T05:47:06.093Z,64.30
2023-02-25T05:50:09.984Z,64.56
2023-02-25T05:53:14.008Z,64.93
2023-02-25T05:56:18.450Z,64.93
2023-02-25T05:59:21.220Z,65.50
2023-02-25T06:02:23.943Z,64.39
2023-02-25T06:05:26.640Z,65.00
2023-02-25T06:08:30.746Z,65.98
2023-02-25T06:11:33.898Z,66.94
2023-02-25T06:14:36.663Z,66.29
2023-02-25T06:17:39.897Z,66.59
2023-02-25T06:20:42.671Z,65.45
2023-02-25T06:23:46.917Z,65.89
2023-02-25T06:26:49.708Z,67.12
2023-02-25T06:29:52.398Z,66.44
2023-02-25T06:32:55.283Z,65.84
2023-02-25T06:35:58.826Z,66.96
2023-02-25T06:39:02.906Z,67.41
2023-02-25T06:42:05.760Z,66.98
2023-02-25T06:45:09.619Z,66.53
2023-02-25T06:48:12.325Z,66.02
2023-02-25T06:51:15.647Z,65.39
2023-02-25T06:54:20.285Z,64.40
2023-02-25T06:57:22.986Z,64.37
2023-02-25T07:00:25.835Z,63.85
2023-02-25T07:03:28.555Z,63.99
2023-02-25T07:06:31.346Z,64.08
2023-02-25T07:09:35.331Z,63.23
2023-02-25T07:12:38.037Z,62.64
2023-02-25T07:15:40.783Z,63.77
2023-02-25T07:18:43.814Z,64.42
2023-02-25T07:21:46.598Z,62.37
2023-02-25T07:24:51.190Z,61.44
2023-02-25T07:27:54.306Z,62.62
2023-02-25T07:30:57.049Z,61.04
2023-02-25T07:34:03.421Z,60.81
2023-02-25T07:37:06.108Z,60.04
2023-02-25T07:40:13.276Z,60.49
2023-02-25T07:43:15.985Z,61.20
2023-02-25T07:46:18.935Z,61.31
2023-02-25T07:49:21.724Z,62.00
2023-02-25T07:52:24.496Z,60.83
2023-02-25T07:55:28.711Z,60.02
2023-02-25T07:58:31.363Z,60.27
2023-02-25T08:01:35.207Z,61.30
2023-02-25T08:04:38.322Z,59.82
2023-02-25T08:07:41.507Z,60.73
2023-02-25T08:10:45.782Z,60.78
2023-02-25T08:13:48.592Z,60.35
2023-02-25T08:16:53.289Z,60.74
2023-02-25T08:19:55.949Z,59.51
2023-02-25T08:22:59.037Z,58.53
2023-02-25T08:26:03.883Z,58.98
2023-02-25T08:29:07.400Z,58.47
2023-02-25T08:32:10.267Z,57.62
2023-02-25T08:35:13.007Z,58.97
2023-02-25T08:38:15.728Z,57.50
2023-02-25T08:41:20.708Z,57.64
2023-02-25T08:44:23.626Z,57.41
2023-02-25T08:47:26.453Z,54.86
2023-02-25T08:50:29.778Z,55.41
2023-02-25T08:53:32.503Z,55.79
2023-02-25T08:56:37.766Z,55.68
2023-02-25T08:59:40.994Z,56.71
2023-02-25T09:02:44.981Z,55.39
2023-02-25T09:05:52.973Z,56.75
2023-02-25T09:08:57.362Z,55.55
2023-02-25T09:12:05.351Z,55.12
2023-02-25T09:15:09.805Z,53.37
2023-02-25T09:18:14.265Z,51.74
2023-02-25T09:21:17.239Z,52.79
2023-02-25T09:24:20.040Z,52.64
2023-02-25T09:27:24.130Z,52.98
2023-02-25T09:30:27.424Z,51.80
2023-02-25T09:33:32.217Z,51.37
2023-02-25T09:36:35.921Z,49.03
2023-02-25T09:39:38.995Z,48.54
2023-02-25T09:42:51.913Z,48.37
2023-02-25T09:45:58.724Z,49.03
2023-02-25T09:49:06.999Z,49.43
2023-02-25T09:52:18.514Z,49.38
2023-02-25T09:55:29.751Z,49.53
2023-02-25T09:58:38.177Z,48.89
2023-02-25T10:01:45.559Z,48.79
2023-02-25T10:04:55.464Z,50.32
2023-02-25T10:08:08.419Z,49.51
2023-02-25T10:11:16.072Z,49.10
2023-02-25T10:14:34.898Z,47.52
2023-02-25T10:17:46.507Z,49.97
2023-02-25T10:20:58.528Z,47.04
2023-02-25T10:24:16.735Z,48.04
2023-02-25T10:27:25.736Z,49.03
2023-02-25T10:30:34.021Z,49.26
2023-02-25T10:33:38.535Z,47.81
2023-02-25T10:36:44.922Z,48.27
2023-02-25T10:39:48.815Z,47.93
2023-02-25T10:42:54.328Z,49.41
2023-02-25T10:46:04.634Z,47.65
2023-02-25T10:49:17.577Z,49.41
2023-02-25T10:52:21.080Z,49.81
2023-02-25T10:55:41.432Z,49.91
2023-02-25T10:58:47.191Z,50.33
2023-02-25T11:01:51.520Z,49.97
2023-02-25T11:04:56.307Z,50.88
2023-02-25T11:07:59.153Z,49.83
2023-02-25T11:11:04.767Z,49.10
2023-02-25T11:14:14.326Z,49.54
2023-02-25T11:17:21.274Z,49.43
2023-02-25T11:20:27.148Z,48.30
2023-02-25T11:23:35.398Z,48.64
2023-02-25T11:26:39.355Z,47.98
2023-02-25T11:29:44.752Z,49.83
2023-02-25T11:32:53.796Z,50.72
2023-02-25T11:35:59.887Z,50.80
2023-02-25T11:39:17.029Z,50.49
2023-02-25T11:42:25.336Z,50.70
2023-02-25T11:45:30.844Z,49.58
2023-02-25T11:48:46.515Z,50.38
2023-02-25T11:51:53.268Z,51.86
2023-02-25T11:55:11.409Z,53.17
2023-02-25T11:58:26.934Z,52.36
2023-02-25T12:01:42.794Z,52.17
2023-02-25T12:05:20.308Z,52.63
2023-02-25T12:08:41.396Z,53.21
2023-02-25T12:12:19.578Z,54.18
2023-02-25T12:15:54.332Z,55.02
2023-02-25T12:19:26.753Z,53.96
2023-02-25T12:23:01.215Z,56.11
2023-02-25T12:26:12.429Z,56.87
2023-02-25T12:29:32.086Z,56.68
2023-02-25T12:32:56.744Z,56.02
2023-02-25T12:36:16.072Z,57.75
2023-02-25T12:39:41.819Z,59.12
2023-02-25T12:42:59.972Z,62.27
2023-02-25T12:46:16.937Z,64.80
2023-02-25T12:49:42.628Z,65.43
2023-02-25T12:53:00.794Z,65.85
2023-02-25T12:56:26.036Z,66.25
2023-02-25T12:59:46.002Z,64.05
2023-02-25T13:03:15.578Z,64.62
2023-02-25T13:06:31.334Z,64.59
2023-02-25T13:10:01.055Z,64.79
2023-02-25T13:13:26.237Z,64.21
2023-02-25T13:16:43.880Z,63.70
2023-02-25T13:20:33.525Z,64.08
2023-02-25T13:23:58.035Z,63.35
2023-02-25T13:27:15.651Z,63.35
2023-02-25T13:30:36.133Z,62.28
2023-02-25T13:34:00.283Z,61.13
2023-02-25T13:37:20.938Z,59.90
2023-02-25T13:40:37.705Z,58.79
2023-02-25T13:43:56.350Z,58.34
2023-02-25T13:47:10.894Z,56.88
2023-02-25T13:50:44.288Z,54.34
2023-02-25T13:54:02.863Z,53.33
2023-02-25T13:57:26.059Z,53.61
2023-02-25T14:00:49.110Z,53.14
2023-02-25T14:04:30.312Z,52.23
2023-02-25T14:07:56.897Z,50.70
2023-02-25T14:11:12.273Z,51.25
2023-02-25T14:14:39.189Z,50.54
2023-02-25T14:17:55.402Z,50.95
2023-02-25T14:21:10.258Z,49.94
2023-02-25T14:24:22.346Z,47.77
2023-02-25T14:27:32.449Z,47.69
2023-02-25T14:30:45.331Z,49.68
2023-02-25T14:34:01.398Z,51.28
2023-02-25T14:37:23.576Z,49.04
2023-02-25T14:40:32.273Z,49.19
2023-02-25T14:43:36.530Z,49.03
2023-02-25T14:46:43.899Z,49.90
2023-02-25T14:49:55.823Z,50.35
2023-02-25T14:53:18.797Z,50.13
2023-02-25T14:56:42.996Z,51.30
2023-02-25T15:00:01.007Z,52.69
2023-02-25T15:03:19.038Z,52.38
2023-02-25T15:06:32.054Z,49.86
2023-02-25T15:10:13.733Z,50.66
2023-02-25T15:13:40.736Z,50.49
2023-02-25T15:17:28.802Z,51.30
2023-02-25T15:20:38.891Z,51.05
2023-02-25T15:23:51.762Z,51.51
2023-02-25T15:26:56.146Z,51.10
2023-02-25T15:30:02.034Z,52.45
2023-02-25T15:33:27.841Z,51.97
2023-02-25T15:36:43.324Z,51.71
2023-02-25T15:39:51.648Z,52.55
2023-02-25T15:42:56.320Z,52.24
2023-02-25T15:46:40.821Z,53.42
2023-02-25T15:49:48.016Z,53.52
2023-02-25T15:52:59.195Z,54.96
2023-02-25T15:56:50.397Z,59.21
2023-02-25T15:59:55.481Z,62.12
2023-02-25T16:03:01.812Z,64.56
2023-02-25T16:06:14.361Z,66.84
2023-02-25T16:09:18.830Z,68.30
2023-02-25T16:12:22.307Z,69.15
2023-02-25T16:15:31.072Z,70.52
2023-02-25T16:18:37.571Z,70.53
2023-02-25T16:21:45.162Z,70.52
2023-02-25T16:24:50.474Z,70.18
2023-02-25T16:28:00.362Z,70.41
2023-02-25T16:31:13.227Z,70.61
2023-02-25T16:34:24.142Z,70.74
2023-02-25T16:37:39.570Z,70.67
2023-02-25T16:40:44.564Z,69.47
2023-02-25T16:43:48.259Z,70.05
2023-02-25T16:46:53.650Z,70.70
2023-02-25T16:49:59.262Z,70.70
2023-02-25T16:53:04.676Z,70.90
2023-02-25T16:56:13.353Z,70.72
2023-02-25T16:59:18.649Z,70.91
2023-02-25T17:02:24.953Z,70.23
2023-02-25T17:05:30.326Z,71.11
2023-02-25T17:08:35.342Z,71.99
2023-02-25T17:11:38.705Z,71.22
2023-02-25T17:14:45.126Z,71.33
2023-02-25T17:17:52.537Z,71.33
2023-02-25T17:21:02.977Z,70.75
2023-02-25T17:24:13.309Z,71.47
2023-02-25T17:27:17.156Z,70.95
2023-02-25T17:30:41.652Z,73.72
2023-02-25T17:33:48.245Z,70.30
2023-02-25T17:36:51.391Z,71.57
2023-02-25T17:39:56.481Z,72.65
2023-02-25T17:43:27.374Z,73.56
2023-02-25T17:46:36.389Z,74.39
2023-02-25T17:49:39.765Z,75.76
2023-02-25T17:52:42.646Z,76.51
2023-02-25T17:55:46.847Z,78.05
2023-02-25T17:58:50.380Z,78.45
2023-02-25T18:01:55.317Z,78.59
2023-02-25T18:05:18.404Z,78.91
2023-02-25T18:08:23.168Z,79.18
2023-02-25T18:11:29.821Z,78.15
2023-02-25T18:14:35.938Z,79.03
2023-02-25T18:17:39.646Z,79.74
2023-02-25T18:20:43.552Z,79.55
2023-02-25T18:23:48.152Z,79.54
2023-02-25T18:27:20.258Z,79.36
2023-02-25T18:30:26.110Z,79.38
2023-02-25T18:33:28.835Z,78.09
2023-02-25T18:36:31.485Z,79.09
2023-02-25T18:39:34.315Z,79.77
2023-02-25T18:42:38.298Z,79.98
2023-02-25T18:45:41.642Z,80.68
2023-02-25T18:48:44.317Z,79.82
2023-02-25T18:51:49.512Z,79.65
2023-02-25T18:54:52.393Z,79.93
2023-02-25T18:57:57.531Z,80.39
2023-02-25T19:01:00.325Z,80.31
2023-02-25T19:04:02.950Z,80.81
2023-02-25T19:07:10.399Z,79.98
2023-02-25T19:10:17.213Z,79.66
2023-02-25T19:13:26.067Z,79.44
2023-02-25T19:16:28.820Z,80.63
2023-02-25T19:19:31.441Z,80.52
2023-02-25T19:22:34.057Z,80.59
2023-02-25T19:25:37.092Z,80.80
2023-02-25T19:28:41.170Z,80.26
2023-02-25T19:31:43.890Z,80.04
2023-02-25T19:34:48.094Z,79.69
2023-02-25T19:37:50.712Z,79.85
2023-02-25T19:40:54.021Z,80.93
2023-02-25T19:43:57.988Z,81.94
2023-02-25T19:47:00.716Z,81.42
2023-02-25T19:50:06.995Z,82.17
2023-02-25T19:53:10.588Z,82.85
2023-02-25T19:56:13.182Z,82.17
2023-02-25T19:59:17.228Z,82.32
2023-02-25T20:02:20.108Z,81.18
2023-02-25T20:05:23.398Z,81.38
2023-02-25T20:08:26.163Z,82.11
2023-02-25T20:11:29.100Z,81.97
2023-02-25T20:14:33.224Z,81.92
2023-02-25T20:17:36.741Z,82.32
2023-02-25T20:20:42.084Z,81.28
2023-02-25T20:23:44.690Z,79.14
2023-02-25T20:26:47.480Z,77.39
2023-02-25T20:29:51.516Z,78.10
2023-02-25T20:32:54.477Z,78.48
2023-02-25T20:35:57.251Z,78.41
2023-02-25T20:39:34.472Z,77.03
2023-02-25T20:42:37.345Z,75.91
2023-02-25T20:45:42.362Z,76.06
2023-02-25T20:48:45.149Z,77.18
2023-02-25T20:51:49.384Z,75.61
2023-02-25T20:54:52.376Z,75.25
2023-02-25T20:57:54.972Z,74.23
2023-02-25T21:00:58.961Z,74.50
2023-02-25T21:04:01.689Z,72.28
2023-02-25T21:07:04.747Z,73.35
2023-02-25T21:10:08.759Z,72.48
2023-02-25T21:13:11.588Z,73.31
2023-02-25T21:16:16.767Z,72.83
2023-02-25T21:19:21.480Z,73.69
2023-02-25T21:22:24.067Z,73.85
2023-02-25T21:25:26.796Z,72.02
2023-02-25T21:28:29.779Z,70.89
2023-02-25T21:31:34.392Z,70.80
2023-02-25T21:34:37.789Z,69.75
2023-02-25T21:37:40.436Z,70.15
2023-02-25T21:40:43.084Z,69.30
2023-02-25T21:43:45.829Z,68.28
2023-02-25T21:46:49.880Z,66.79
2023-02-25T21:49:54.567Z,64.82
2023-02-25T21:52:57.333Z,66.91
2023-02-25T21:56:10.158Z,65.91
2023-02-25T21:59:12.822Z,65.32
2023-02-25T22:02:17.072Z,64.23
2023-02-25T22:05:20.235Z,65.65
2023-02-25T22:08:22.829Z,65.87
2023-02-25T22:11:28.147Z,65.84
2023-02-25T22:14:30.727Z,66.58
2023-02-25T22:17:36.425Z,66.83
2023-02-25T22:20:39.050Z,65.74
2023-02-25T22:23:43.437Z,65.43
2023-02-25T22:26:48.268Z,64.39
2023-02-25T22:29:51.299Z,65.83
2023-02-25T22:32:55.445Z,65.02
2023-02-25T22:35:59.662Z,65.48
2023-02-25T22:39:05.434Z,64.69
2023-02-25T22:42:08.071Z,64.87
2023-02-25T22:45:11.315Z,65.39
2023-02-25T22:48:15.355Z,66.43
2023-02-25T22:51:20.964Z,65.93
2023-02-25T22:54:23.620Z,66.08
2023-02-25T22:57:26.277Z,66.67
2023-02-25T23:00:36.918Z,66.59
2023-02-25T23:03:43.621Z,65.92
2023-02-25T23:06:46.734Z,66.50
2023-02-25T23:09:49.819Z,65.94
2023-02-25T23:12:52.422Z,65.95
2023-02-25T23:15:55.220Z,66.60
2023-02-25T23:19:00.318Z,66.42
2023-02-25T23:22:02.920Z,65.52
2023-02-25T23:25:06.471Z,65.87
2023-02-25T23:28:10.691Z,66.70
2023-02-25T23:31:20.121Z,64.87
2023-02-25T23:34:25.037Z,64.88
2023-02-25T23:37:27.699Z,65.31
2023-02-25T23:40:30.357Z,64.42
2023-02-25T23:43:33.089Z,64.73
2023-02-25T23:46:36.475Z,65.31
2023-02-25T23:49:40.453Z,65.06
2023-02-25T23:52:43.601Z,65.15
2023-02-25T23:55:46.194Z,65.49
2023-02-25T23:58:50.247Z,64.59
